createdAt,value
2019-04-11T00:01:45.249Z,99.90
2019-04-11T00:04:13.421Z,99.90
2019-04-11T00:06:44.260Z,99.90
2019-04-11T00:09:18.752Z,99.90
2019-04-11T00:11:50.107Z,99.90
2019-04-11T00:14:20.640Z,99.90
2019-04-11T00:16:51.092Z,99.90
2019-04-11T00:19:21.468Z,99.90
2019-04-11T00:21:51.780Z,99.90
2019-04-11T00:24:22.883Z,99.90
2019-04-11T00:26:54.894Z,99.90
2019-04-11T00:29:26.084Z,99.90
2019-04-11T00:31:56.993Z,99.90
2019-04-11T00:34:27.516Z,99.90
2019-04-11T00:36:58.890Z,99.90
2019-04-11T00:39:29.918Z,99.90
2019-04-11T00:42:00.488Z,99.90
2019-04-11T00:44:30.844Z,99.90
2019-04-11T00:47:01.251Z,99.90
2019-04-11T00:49:32.577Z,99.90
2019-04-11T00:52:04.593Z,99.90
2019-04-11T00:54:35.333Z,99.90
2019-04-11T00:57:06.550Z,99.90
2019-04-11T00:59:38.488Z,99.90
2019-04-11T01:02:09.367Z,99.90
2019-04-11T01:04:39.828Z,99.90
2019-04-11T01:07:11.094Z,99.90
2019-04-11T01:09:42.288Z,99.90
2019-04-11T01:12:12.837Z,99.90
2019-04-11T01:14:43.230Z,99.90
2019-04-11T01:17:14.842Z,99.90
2019-04-11T01:19:46.802Z,99.90
2019-04-11T01:22:18.174Z,99.90
2019-04-11T01:24:48.944Z,99.90
2019-04-11T01:27:19.464Z,99.90
2019-04-11T01:29:49.856Z,99.90
2019-04-11T01:32:20.560Z,99.90
2019-04-11T01:34:51.223Z,99.90
2019-04-11T01:37:21.922Z,99.90
2019-04-11T01:40:02.512Z,99.90
2019-04-11T01:42:35.589Z,99.90
2019-04-11T01:45:09.413Z,99.90
2019-04-11T01:48:01.937Z,99.90
2019-04-11T01:50:34.956Z,99.90
2019-04-11T01:53:06.701Z,99.90
2019-04-11T01:55:37.108Z,99.90
2019-04-11T01:58:08.611Z,99.90
2019-04-11T02:01:16.802Z,99.90
2019-04-11T02:04:03.651Z,99.90
2019-04-11T02:06:34.360Z,99.90
2019-04-11T02:09:08.702Z,99.90
2019-04-11T02:11:39.483Z,99.90
2019-04-11T02:14:15.542Z,99.90
2019-04-11T02:16:41.849Z,99.90
2019-04-11T02:19:12.187Z,99.90
2019-04-11T02:21:44.181Z,99.90
2019-04-11T02:24:39.703Z,99.90
2019-04-11T02:27:19.234Z,99.90
2019-04-11T02:29:50.843Z,99.90
2019-04-11T02:32:24.867Z,99.90
2019-04-11T02:34:58.938Z,99.90
2019-04-11T02:37:27.202Z,99.90
2019-04-11T02:39:58.416Z,99.90
2019-04-11T02:42:30.715Z,99.90
2019-04-11T02:45:16.446Z,99.90
2019-04-11T02:47:36.927Z,99.90
2019-04-11T02:50:08.195Z,99.90
2019-04-11T02:52:40.896Z,99.90
2019-04-11T02:55:13.129Z,99.90
2019-04-11T02:57:45.963Z,99.90
2019-04-11T03:00:18.080Z,99.90
2019-04-11T03:02:50.856Z,99.90
2019-04-11T03:05:21.537Z,99.90
2019-04-11T03:07:53.976Z,99.90
2019-04-11T03:10:24.957Z,99.90
2019-04-11T03:12:56.750Z,99.90
2019-04-11T03:15:43.000Z,99.90
2019-04-11T03:18:02.937Z,99.90
2019-04-11T03:20:40.798Z,99.90
2019-04-11T03:23:09.858Z,99.90
2019-04-11T03:25:40.572Z,99.90
2019-04-11T03:28:16.763Z,99.90
2019-04-11T03:31:06.928Z,99.90
2019-04-11T03:34:06.021Z,99.90
2019-04-11T03:36:36.982Z,99.90
2019-04-11T03:38:42.600Z,99.90
2019-04-11T03:41:12.817Z,99.90
2019-04-11T03:43:36.613Z,99.90
2019-04-11T03:46:16.010Z,99.90
2019-04-11T03:48:42.149Z,99.90
2019-04-11T03:51:04.490Z,99.90
2019-04-11T03:53:37.082Z,99.90
2019-04-11T03:56:07.686Z,99.90
2019-04-11T03:58:39.787Z,99.90
2019-04-11T04:01:11.596Z,99.90
2019-04-11T04:03:42.597Z,99.90
2019-04-11T04:06:14.677Z,99.90
2019-04-11T04:08:46.616Z,99.90
2019-04-11T04:11:26.708Z,99.90
2019-04-11T04:14:04.184Z,99.90
2019-04-11T04:16:48.289Z,99.90
2019-04-11T04:19:49.904Z,99.90
2019-04-11T04:22:31.443Z,99.90
2019-04-11T04:25:03.745Z,99.90
2019-04-11T04:27:34.788Z,99.90
2019-04-11T04:30:08.468Z,99.90
2019-04-11T04:32:40.475Z,99.90
2019-04-11T04:35:14.906Z,99.90
2019-04-11T04:37:45.268Z,99.90
2019-04-11T04:40:31.428Z,99.90
2019-04-11T04:42:52.694Z,99.90
2019-04-11T04:45:21.483Z,99.90
2019-04-11T04:48:00.483Z,99.90
2019-04-11T04:50:24.493Z,99.90
2019-04-11T04:52:55.954Z,99.90
2019-04-11T04:55:28.569Z,99.90
2019-04-11T04:57:59.863Z,99.90
2019-04-11T05:00:32.137Z,99.90
2019-04-11T05:03:02.754Z,99.90
2019-04-11T05:05:33.813Z,99.90
2019-04-11T05:08:06.153Z,99.90
2019-04-11T05:10:38.131Z,99.90
2019-04-11T05:13:09.900Z,99.90
2019-04-11T05:15:41.732Z,99.90
2019-04-11T05:18:14.880Z,99.90
2019-04-11T05:20:44.916Z,99.90
2019-04-11T05:23:15.231Z,99.90
2019-04-11T05:25:46.575Z,99.90
2019-04-11T05:28:17.021Z,99.90
2019-04-11T05:30:47.371Z,99.90
2019-04-11T05:33:18.010Z,99.90
2019-04-11T05:35:48.467Z,99.90
2019-04-11T05:38:18.938Z,99.90
2019-04-11T05:40:50.341Z,99.90
2019-04-11T05:43:22.517Z,99.90
2019-04-11T05:45:55.216Z,99.90
2019-04-11T05:48:35.326Z,99.90
2019-04-11T05:51:06.605Z,99.90
2019-04-11T05:53:38.652Z,99.90
2019-04-11T05:56:09.330Z,99.90
2019-04-11T05:58:44.338Z,99.90
2019-04-11T06:01:24.406Z,99.90
2019-04-11T06:03:57.361Z,99.90
2019-04-11T06:06:44.358Z,99.90
2019-04-11T06:09:20.901Z,99.90
2019-04-11T06:11:57.629Z,99.90
2019-04-11T06:14:31.704Z,99.90
2019-04-11T06:17:05.679Z,99.90
2019-04-11T06:19:50.143Z,99.90
2019-04-11T06:22:21.340Z,99.90
2019-04-11T06:25:18.821Z,99.90
2019-04-11T06:28:02.142Z,99.90
2019-04-11T06:31:01.051Z,99.90
2019-04-11T06:33:34.614Z,99.90
2019-04-11T06:36:28.074Z,99.90
2019-04-11T06:39:19.080Z,99.90
2019-04-11T06:42:05.954Z,99.90
2019-04-11T06:44:45.971Z,99.90
2019-04-11T06:47:34.674Z,99.00
2019-04-11T06:50:17.396Z,99.90
2019-04-11T06:52:48.797Z,99.90
2019-04-11T06:55:49.528Z,99.90
2019-04-11T06:58:23.623Z,99.90
2019-04-11T07:01:01.233Z,99.90
2019-04-11T07:03:36.683Z,97.80
2019-04-11T07:06:13.516Z,95.00
2019-04-11T07:09:03.306Z,94.20
2019-04-11T07:11:44.831Z,91.50
2019-04-11T07:14:31.220Z,92.10
2019-04-11T07:17:23.597Z,91.40
2019-04-11T07:20:11.434Z,91.20
2019-04-11T07:22:59.615Z,91.80
2019-04-11T07:26:08.030Z,92.60
2019-04-11T07:29:04.543Z,91.90
2019-04-11T07:32:00.899Z,91.50
2019-04-11T07:34:50.496Z,91.00
2019-04-11T07:37:38.694Z,89.90
2019-04-11T07:40:29.485Z,87.10
2019-04-11T07:43:14.917Z,84.00
2019-04-11T07:45:55.948Z,80.20
2019-04-11T07:48:29.948Z,81.30
2019-04-11T07:51:11.631Z,81.30
2019-04-11T07:53:45.959Z,78.30
2019-04-11T07:56:31.035Z,77.10
2019-04-11T07:59:05.112Z,74.80
2019-04-11T08:01:53.223Z,71.60
2019-04-11T08:04:55.367Z,65.70
2019-04-11T08:08:05.282Z,65.90
2019-04-11T08:10:41.443Z,67.40
2019-04-11T08:13:16.547Z,67.10
2019-04-11T08:16:06.404Z,67.60
2019-04-11T08:19:03.451Z,66.40
2019-04-11T08:22:04.969Z,69.10
2019-04-11T08:24:49.467Z,69.40
2019-04-11T08:27:48.046Z,69.10
2019-04-11T08:30:08.719Z,59.50
2019-04-11T08:32:58.239Z,61.00
2019-04-11T08:35:53.450Z,60.40
2019-04-11T08:38:24.955Z,63.00
2019-04-11T08:41:33.739Z,63.30
2019-04-11T08:44:09.805Z,63.70
2019-04-11T08:46:46.859Z,61.80
2019-04-11T08:49:29.980Z,61.20
2019-04-11T08:52:00.948Z,60.90
2019-04-11T08:54:56.220Z,59.90
2019-04-11T08:57:36.174Z,59.80
2019-04-11T09:00:26.276Z,60.90
2019-04-11T09:03:05.123Z,61.30
2019-04-11T09:05:49.366Z,61.00
2019-04-11T09:08:42.668Z,60.50
2019-04-11T09:11:39.474Z,61.90
2019-04-11T09:14:28.500Z,63.90
2019-04-11T09:17:21.479Z,64.70
2019-04-11T09:20:09.897Z,65.00
2019-04-11T09:22:47.149Z,64.60
2019-04-11T09:25:43.449Z,63.60
2019-04-11T09:28:33.971Z,63.70
2019-04-11T09:31:35.847Z,64.50
2019-04-11T09:34:28.167Z,66.30
2019-04-11T09:37:18.797Z,66.20
2019-04-11T09:40:23.948Z,67.30
2019-04-11T09:43:28.098Z,67.50
2019-04-11T09:46:24.153Z,67.40
2019-04-11T09:49:06.720Z,66.60
2019-04-11T09:51:47.746Z,64.30
2019-04-11T09:54:37.147Z,62.50
2019-04-11T09:57:29.461Z,60.90
2019-04-11T10:00:22.779Z,58.40
2019-04-11T10:03:13.032Z,58.10
2019-04-11T10:05:51.627Z,57.40
2019-04-11T10:08:41.675Z,57.40
2019-04-11T10:11:30.371Z,57.10
2019-04-11T10:14:07.250Z,55.80
2019-04-11T10:16:56.531Z,56.30
2019-04-11T10:19:44.202Z,56.40
2019-04-11T10:22:45.958Z,54.50
2019-04-11T10:25:28.254Z,51.20
2019-04-11T10:28:30.438Z,52.50
2019-04-11T10:31:08.915Z,53.90
2019-04-11T10:33:57.401Z,54.90
2019-04-11T10:36:34.842Z,55.20
2019-04-11T10:39:43.779Z,55.50
2019-04-11T10:42:15.167Z,55.30
2019-04-11T10:45:04.661Z,56.30
2019-04-11T10:47:36.782Z,57.00
2019-04-11T10:50:26.814Z,57.70
2019-04-11T10:53:00.617Z,58.30
2019-04-11T10:55:46.204Z,58.40
2019-04-11T10:58:20.589Z,58.00
2019-04-11T11:01:09.996Z,58.00
2019-04-11T11:03:49.339Z,57.50
2019-04-11T11:06:23.893Z,57.90
2019-04-11T11:09:14.204Z,58.00
2019-04-11T11:12:00.818Z,58.50
2019-04-11T11:14:55.393Z,58.90
2019-04-11T11:18:12.748Z,59.40
2019-04-11T11:20:45.532Z,59.60
2019-04-11T11:23:18.871Z,59.70
2019-04-11T11:26:00.595Z,59.10
2019-04-11T11:28:32.451Z,58.70
2019-04-11T11:31:18.419Z,57.80
2019-04-11T11:33:49.515Z,56.20
2019-04-11T11:36:39.603Z,56.20
2019-04-11T11:39:17.258Z,56.10
2019-04-11T11:42:22.185Z,56.40
2019-04-11T11:44:55.546Z,56.00
2019-04-11T11:47:43.423Z,56.20
2019-04-11T11:50:18.780Z,55.70
2019-04-11T11:53:09.583Z,55.10
2019-04-11T11:55:39.131Z,55.30
2019-04-11T11:58:28.457Z,54.70
2019-04-11T12:01:03.169Z,55.00
2019-04-11T12:03:42.839Z,55.00
2019-04-11T12:06:13.169Z,55.40
2019-04-11T12:09:08.379Z,55.10
2019-04-11T12:11:40.553Z,54.60
2019-04-11T12:14:33.064Z,55.20
2019-04-11T12:17:22.762Z,55.30
2019-04-11T12:20:06.435Z,55.50
2019-04-11T12:22:33.271Z,55.40
2019-04-11T12:25:09.315Z,56.30
2019-04-11T12:28:09.307Z,56.50
2019-04-11T12:30:39.895Z,56.90
2019-04-11T12:33:28.142Z,57.30
2019-04-11T12:36:18.717Z,57.30
2019-04-11T12:39:09.334Z,57.20
2019-04-11T12:42:17.694Z,57.50
2019-04-11T12:45:06.564Z,57.50
2019-04-11T12:47:43.857Z,57.20
2019-04-11T12:50:33.872Z,57.00
2019-04-11T12:53:15.335Z,56.90
2019-04-11T12:56:02.207Z,56.50
2019-04-11T12:58:36.474Z,56.70
2019-04-11T13:01:16.001Z,56.50
2019-04-11T13:04:23.531Z,56.70
2019-04-11T13:07:28.603Z,57.50
2019-04-11T13:10:19.859Z,58.20
2019-04-11T13:13:24.475Z,58.70
2019-04-11T13:15:57.926Z,59.10
2019-04-11T13:18:47.267Z,59.90
2019-04-11T13:21:24.728Z,60.50
2019-04-11T13:24:14.075Z,60.30
2019-04-11T13:27:11.096Z,60.20
2019-04-11T13:30:03.439Z,59.60
2019-04-11T13:32:44.823Z,59.10
2019-04-11T13:35:37.202Z,58.90
2019-04-11T13:38:22.800Z,58.90
2019-04-11T13:41:12.046Z,59.00
2019-04-11T13:43:48.222Z,59.60
2019-04-11T13:46:45.414Z,60.00
2019-04-11T13:49:41.724Z,60.60
2019-04-11T13:52:31.020Z,60.90
2019-04-11T13:55:20.011Z,61.50
2019-04-11T13:58:12.092Z,61.90
2019-04-11T14:00:45.986Z,61.90
2019-04-11T14:03:44.112Z,62.50
2019-04-11T14:06:23.536Z,63.50
2019-04-11T14:09:13.041Z,62.70
2019-04-11T14:11:48.246Z,61.90
2019-04-11T14:14:38.818Z,61.80
2019-04-11T14:17:26.810Z,62.10
2019-04-11T14:20:30.241Z,62.40
2019-04-11T14:23:34.426Z,62.50
2019-04-11T14:26:33.823Z,62.00
2019-04-11T14:29:27.003Z,62.10
2019-04-11T14:32:08.755Z,61.30
2019-04-11T14:34:56.809Z,61.70
2019-04-11T14:37:44.620Z,62.40
2019-04-11T14:40:26.794Z,63.00
2019-04-11T14:43:20.543Z,63.40
2019-04-11T14:46:15.946Z,63.10
2019-04-11T14:48:55.784Z,61.80
2019-04-11T14:51:53.901Z,61.40
2019-04-11T14:54:36.725Z,61.30
2019-04-11T14:57:36.148Z,61.70
2019-04-11T15:00:21.926Z,61.70
2019-04-11T15:03:23.934Z,61.80
2019-04-11T15:06:14.857Z,61.20
2019-04-11T15:09:03.207Z,60.30
2019-04-11T15:11:57.100Z,60.20
2019-04-11T15:14:51.792Z,60.00
2019-04-11T15:17:27.282Z,60.20
2019-04-11T15:20:23.780Z,60.00
2019-04-11T15:23:07.659Z,60.10
2019-04-11T15:26:09.132Z,60.00
2019-04-11T15:29:02.001Z,59.40
2019-04-11T15:31:44.812Z,59.50
2019-04-11T15:34:36.906Z,59.40
2019-04-11T15:37:25.842Z,59.10
2019-04-11T15:40:10.866Z,58.60
2019-04-11T15:43:05.930Z,58.40
2019-04-11T15:45:55.301Z,58.50
2019-04-11T15:48:53.939Z,59.20
2019-04-11T15:51:46.859Z,59.20
2019-04-11T15:54:42.100Z,59.60
2019-04-11T15:57:30.426Z,60.00
2019-04-11T16:00:28.976Z,60.00
2019-04-11T16:03:08.002Z,60.10
2019-04-11T16:06:09.382Z,60.40
2019-04-11T16:08:45.298Z,60.60
2019-04-11T16:11:53.083Z,61.00
2019-04-11T16:14:26.569Z,61.60
2019-04-11T16:17:14.773Z,62.60
2019-04-11T16:19:53.050Z,63.50
2019-04-11T16:22:54.990Z,64.00
2019-04-11T16:25:24.196Z,64.20
2019-04-11T16:28:12.473Z,64.40
2019-04-11T16:30:47.684Z,64.30
2019-04-11T16:33:29.448Z,64.80
2019-04-11T16:36:12.844Z,64.90
2019-04-11T16:38:50.423Z,65.00
2019-04-11T16:41:38.612Z,65.20
2019-04-11T16:44:13.842Z,65.00
2019-04-11T16:47:02.036Z,65.00
2019-04-11T16:49:33.591Z,65.10
2019-04-11T16:52:07.511Z,65.20
2019-04-11T16:54:39.735Z,65.00
2019-04-11T16:57:08.017Z,65.30
2019-04-11T16:59:38.362Z,65.40
2019-04-11T17:02:08.696Z,65.30
2019-04-11T17:04:39.054Z,65.60
2019-04-11T17:07:30.012Z,65.60
2019-04-11T17:10:02.096Z,65.80
2019-04-11T17:12:34.168Z,65.50
2019-04-11T17:15:06.834Z,65.60
2019-04-11T17:17:37.296Z,65.80
2019-04-11T17:20:08.224Z,65.80
2019-04-11T17:22:38.578Z,65.80
2019-04-11T17:25:09.549Z,65.70
2019-04-11T17:27:39.974Z,65.40
2019-04-11T17:30:10.968Z,65.20
2019-04-11T17:32:41.414Z,65.10
2019-04-11T17:35:11.850Z,65.10
2019-04-11T17:37:42.229Z,65.20
2019-04-11T17:40:12.710Z,65.40
2019-04-11T17:42:44.006Z,65.30
2019-04-11T17:45:15.031Z,65.30
2019-04-11T17:47:45.634Z,65.40
2019-04-11T17:50:16.204Z,65.40
2019-04-11T17:52:46.555Z,65.60
2019-04-11T17:55:16.926Z,65.80
2019-04-11T17:57:47.224Z,65.80
2019-04-11T18:00:29.563Z,65.70
2019-04-11T18:02:58.309Z,66.00
2019-04-11T18:05:28.594Z,66.20
2019-04-11T18:07:58.948Z,66.30
2019-04-11T18:10:29.530Z,66.40
2019-04-11T18:13:00.605Z,66.40
2019-04-11T18:15:31.841Z,66.50
2019-04-11T18:18:03.179Z,66.70
2019-04-11T18:20:37.119Z,66.80
2019-04-11T18:23:07.901Z,66.90
2019-04-11T18:25:38.506Z,67.00
2019-04-11T18:28:08.909Z,67.10
2019-04-11T18:30:39.310Z,67.40
2019-04-11T18:33:09.687Z,67.60
2019-04-11T18:35:41.040Z,67.70
2019-04-11T18:38:11.343Z,67.90
2019-04-11T18:40:42.214Z,68.10
2019-04-11T18:43:15.972Z,68.10
2019-04-11T18:45:44.830Z,68.20
2019-04-11T18:48:15.527Z,68.40
2019-04-11T18:50:45.799Z,68.50
2019-04-11T18:53:16.174Z,68.70
2019-04-11T18:55:46.630Z,68.70
2019-04-11T18:58:17.012Z,68.90
2019-04-11T19:00:47.359Z,68.80
2019-04-11T19:03:17.944Z,69.10
2019-04-11T19:05:48.328Z,69.00
2019-04-11T19:08:18.738Z,69.40
2019-04-11T19:10:49.064Z,69.40
2019-04-11T19:13:19.552Z,70.10
2019-04-11T19:15:49.950Z,69.60
2019-04-11T19:18:20.295Z,70.20
2019-04-11T19:20:50.930Z,70.40
2019-04-11T19:23:21.642Z,70.80
2019-04-11T19:25:52.042Z,70.70
2019-04-11T19:28:24.942Z,71.00
2019-04-11T19:30:56.795Z,71.30
2019-04-11T19:33:27.399Z,71.60
2019-04-11T19:35:57.740Z,71.90
2019-04-11T19:38:33.279Z,72.30
2019-04-11T19:41:03.898Z,73.30
2019-04-11T19:43:34.334Z,72.80
2019-04-11T19:46:04.845Z,73.30
2019-04-11T19:48:35.335Z,73.80
2019-04-11T19:51:05.695Z,74.10
2019-04-11T19:53:36.048Z,74.60
2019-04-11T19:56:20.491Z,74.90
2019-04-11T19:58:51.170Z,75.40
2019-04-11T20:01:23.437Z,75.90
2019-04-11T20:03:54.156Z,76.70
2019-04-11T20:06:25.329Z,77.10
2019-04-11T20:08:55.744Z,77.40
2019-04-11T20:11:26.178Z,78.20
2019-04-11T20:13:56.548Z,78.60
2019-04-11T20:16:26.849Z,79.40
2019-04-11T20:18:58.042Z,80.30
2019-04-11T20:21:29.197Z,80.90
2019-04-11T20:24:00.012Z,82.30
2019-04-11T20:26:30.401Z,83.20
2019-04-11T20:29:00.790Z,83.80
2019-04-11T20:31:31.151Z,84.20
2019-04-11T20:34:06.834Z,85.60
2019-04-11T20:36:34.637Z,86.60
2019-04-11T20:39:07.594Z,87.20
2019-04-11T20:41:38.206Z,89.20
2019-04-11T20:44:08.580Z,90.20
2019-04-11T20:46:38.926Z,91.40
2019-04-11T20:49:09.308Z,91.30
2019-04-11T20:51:39.646Z,91.70
2019-04-11T20:54:10.020Z,92.20
2019-04-11T20:56:40.948Z,92.50
2019-04-11T20:59:11.903Z,93.40
2019-04-11T21:01:42.141Z,93.30
2019-04-11T21:04:12.590Z,93.60
2019-04-11T21:06:42.887Z,94.00
2019-04-11T21:09:13.572Z,95.30
2019-04-11T21:11:44.063Z,94.70
2019-04-11T21:14:14.690Z,95.10
2019-04-11T21:16:45.115Z,95.20
2019-04-11T21:19:15.555Z,96.00
2019-04-11T21:21:45.948Z,95.90
2019-04-11T21:24:16.445Z,96.60
2019-04-11T21:26:48.888Z,96.90
2019-04-11T21:29:19.252Z,97.00
2019-04-11T21:31:49.670Z,97.30
2019-04-11T21:34:20.071Z,98.10
2019-04-11T21:36:50.565Z,98.60
2019-04-11T21:39:20.992Z,98.80
2019-04-11T21:41:51.506Z,99.50
2019-04-11T21:44:21.923Z,99.90
2019-04-11T21:46:52.322Z,99.90
2019-04-11T21:49:22.994Z,99.90
2019-04-11T21:51:53.490Z,99.90
2019-04-11T21:54:24.002Z,99.90
2019-04-11T21:56:54.485Z,99.90
2019-04-11T21:59:24.963Z,99.90
2019-04-11T22:01:55.323Z,99.90
2019-04-11T22:04:27.454Z,99.90
2019-04-11T22:07:00.699Z,99.90
2019-04-11T22:09:29.865Z,99.90
2019-04-11T22:12:00.195Z,99.90
2019-04-11T22:14:30.577Z,99.90
2019-04-11T22:17:01.261Z,99.90
2019-04-11T22:19:31.647Z,99.90
2019-04-11T22:22:02.021Z,99.90
2019-04-11T22:24:32.471Z,99.90
2019-04-11T22:27:02.843Z,99.90
2019-04-11T22:29:33.341Z,99.90
2019-04-11T22:32:03.725Z,99.90
2019-04-11T22:34:45.342Z,99.90
2019-04-11T22:37:15.771Z,99.90
2019-04-11T22:39:46.660Z,99.90
2019-04-11T22:42:17.051Z,99.90
2019-04-11T22:44:47.465Z,99.90
2019-04-11T22:47:17.976Z,99.90
2019-04-11T22:49:48.475Z,99.90
2019-04-11T22:52:18.907Z,99.90
2019-04-11T22:54:49.656Z,99.90
2019-04-11T22:57:19.997Z,99.90
2019-04-11T22:59:50.362Z,99.90
2019-04-11T23:02:27.843Z,99.90
2019-04-11T23:04:58.237Z,99.90
2019-04-11T23:07:28.814Z,99.90
2019-04-11T23:09:59.213Z,99.90
2019-04-11T23:12:29.679Z,99.90
2019-04-11T23:15:00.053Z,99.90
2019-04-11T23:17:30.546Z,99.90
2019-04-11T23:20:01.077Z,99.90
2019-04-11T23:22:31.333Z,99.90
2019-04-11T23:25:01.771Z,99.90
2019-04-11T23:27:33.420Z,99.90
2019-04-11T23:30:05.574Z,99.90
2019-04-11T23:32:35.974Z,99.90
2019-04-11T23:35:06.699Z,99.90
2019-04-11T23:37:51.091Z,99.90
2019-04-11T23:40:22.765Z,99.90
2019-04-11T23:42:53.145Z,99.90
2019-04-11T23:45:26.284Z,99.90
2019-04-11T23:47:56.656Z,99.90
2019-04-11T23:50:26.999Z,99.90
2019-04-11T23:52:58.145Z,99.90
2019-04-11T23:55:30.785Z,99.90
2019-04-11T23:58:02.182Z,99.90
